sensor_id;sensor_type;location;lat;lon;timestamp;temperature;humidity
24146;DHT22;12308;50.948;4.706;2023-03-12T00:01:24;6.10;99.90
24146;DHT22;12308;50.948;4.706;2023-03-12T00:03:50;6.20;99.90
24146;DHT22;12308;50.948;4.706;2023-03-12T00:06:17;6.30;99.90
24146;DHT22;12308;50.948;4.706;2023-03-12T00:08:43;6.30;99.90
24146;DHT22;12308;50.948;4.706;2023-03-12T00:11:17;6.40;99.90
24146;DHT22;12308;50.948;4.706;2023-03-12T00:13:43;6.30;99.90
24146;DHT22;12308;50.948;4.706;2023-03-12T00:16:11;6.30;99.90
24146;DHT22;12308;50.948;4.706;2023-03-12T00:18:37;6.30;99.90
24146;DHT22;12308;50.948;4.706;2023-03-12T00:21:03;6.30;99.90
24146;DHT22;12308;50.948;4.706;2023-03-12T00:23:29;6.20;99.90
24146;DHT22;12308;50.948;4.706;2023-03-12T00:26:02;6.20;99.90
24146;DHT22;12308;50.948;4.706;2023-03-12T00:28:28;6.20;99.90
24146;DHT22;12308;50.948;4.706;2023-03-12T00:30:53;6.20;99.90
24146;DHT22;12308;50.948;4.706;2023-03-12T00:33:19;6.20;99.90
24146;DHT22;12308;50.948;4.706;2023-03-12T00:35:45;6.30;99.90
24146;DHT22;12308;50.948;4.706;2023-03-12T00:38:10;6.30;99.90
24146;DHT22;12308;50.948;4.706;2023-03-12T00:40:36;6.30;99.90
24146;DHT22;12308;50.948;4.706;2023-03-12T00:43:03;6.20;99.90
24146;DHT22;12308;50.948;4.706;2023-03-12T00:45:29;6.30;99.90
24146;DHT22;12308;50.948;4.706;2023-03-12T00:47:55;6.20;99.90
24146;DHT22;12308;50.948;4.706;2023-03-12T00:50:20;6.30;99.90
24146;DHT22;12308;50.948;4.706;2023-03-12T00:52:46;6.20;99.90
24146;DHT22;12308;50.948;4.706;2023-03-12T00:55:12;6.20;99.90
24146;DHT22;12308;50.948;4.706;2023-03-12T00:57:37;6.30;99.90
24146;DHT22;12308;50.948;4.706;2023-03-12T01:00:04;6.30;99.90
24146;DHT22;12308;50.948;4.706;2023-03-12T01:02:35;6.30;99.90
24146;DHT22;12308;50.948;4.706;2023-03-12T01:05:01;6.30;99.90
24146;DHT22;12308;50.948;4.706;2023-03-12T01:07:27;6.50;99.90
24146;DHT22;12308;50.948;4.706;2023-03-12T01:09:52;6.30;99.90
24146;DHT22;12308;50.948;4.706;2023-03-12T01:12:18;6.40;99.90
24146;DHT22;12308;50.948;4.706;2023-03-12T01:14:44;6.50;99.90
24146;DHT22;12308;50.948;4.706;2023-03-12T01:17:09;6.40;99.90
24146;DHT22;12308;50.948;4.706;2023-03-12T01:19:35;6.40;99.90
24146;DHT22;12308;50.948;4.706;2023-03-12T01:22:01;6.40;99.90
24146;DHT22;12308;50.948;4.706;2023-03-12T01:24:26;6.40;99.90
24146;DHT22;12308;50.948;4.706;2023-03-12T01:26:52;6.40;99.90
24146;DHT22;12308;50.948;4.706;2023-03-12T01:29:18;6.40;99.90
24146;DHT22;12308;50.948;4.706;2023-03-12T01:31:43;6.50;99.90
24146;DHT22;12308;50.948;4.706;2023-03-12T01:34:10;6.50;99.90
24146;DHT22;12308;50.948;4.706;2023-03-12T01:36:36;6.50;99.90
24146;DHT22;12308;50.948;4.706;2023-03-12T01:39:02;6.50;99.90
24146;DHT22;12308;50.948;4.706;2023-03-12T01:41:30;6.50;99.90
24146;DHT22;12308;50.948;4.706;2023-03-12T01:43:59;6.60;99.90
24146;DHT22;12308;50.948;4.706;2023-03-12T01:46:32;6.50;99.90
24146;DHT22;12308;50.948;4.706;2023-03-12T01:51:27;6.60;99.90
24146;DHT22;12308;50.948;4.706;2023-03-12T01:53:58;6.60;99.90
24146;DHT22;12308;50.948;4.706;2023-03-12T01:56:28;6.50;99.90
24146;DHT22;12308;50.948;4.706;2023-03-12T01:58:57;6.50;99.90
24146;DHT22;12308;50.948;4.706;2023-03-12T02:01:25;6.60;99.90
24146;DHT22;12308;50.948;4.706;2023-03-12T02:03:53;6.50;99.90
24146;DHT22;12308;50.948;4.706;2023-03-12T02:06:24;6.40;99.90
24146;DHT22;12308;50.948;4.706;2023-03-12T02:08:51;6.30;99.90
24146;DHT22;12308;50.948;4.706;2023-03-12T02:11:17;6.40;99.90
24146;DHT22;12308;50.948;4.706;2023-03-12T02:13:43;6.40;99.90
24146;DHT22;12308;50.948;4.706;2023-03-12T02:16:09;6.40;99.90
24146;DHT22;12308;50.948;4.706;2023-03-12T02:18:35;6.40;99.90
24146;DHT22;12308;50.948;4.706;2023-03-12T02:21:20;6.60;99.90
24146;DHT22;12308;50.948;4.706;2023-03-12T02:24:24;6.40;99.90
24146;DHT22;12308;50.948;4.706;2023-03-12T02:26:50;6.40;99.90
24146;DHT22;12308;50.948;4.706;2023-03-12T02:29:17;6.40;99.90
24146;DHT22;12308;50.948;4.706;2023-03-12T02:31:46;6.30;99.90
24146;DHT22;12308;50.948;4.706;2023-03-12T02:34:12;6.30;99.90
24146;DHT22;12308;50.948;4.706;2023-03-12T02:36:38;6.40;99.90
24146;DHT22;12308;50.948;4.706;2023-03-12T02:39:04;6.50;99.90
24146;DHT22;12308;50.948;4.706;2023-03-12T02:41:35;6.30;99.90
24146;DHT22;12308;50.948;4.706;2023-03-12T02:44:15;6.30;99.90
24146;DHT22;12308;50.948;4.706;2023-03-12T02:46:44;6.20;99.90
24146;DHT22;12308;50.948;4.706;2023-03-12T02:49:11;6.10;99.90
24146;DHT22;12308;50.948;4.706;2023-03-12T02:51:39;6.10;99.90
24146;DHT22;12308;50.948;4.706;2023-03-12T02:54:05;6.20;99.90
24146;DHT22;12308;50.948;4.706;2023-03-12T02:56:31;6.10;99.90
24146;DHT22;12308;50.948;4.706;2023-03-12T02:58:57;6.30;99.90
24146;DHT22;12308;50.948;4.706;2023-03-12T03:01:23;6.30;99.90
24146;DHT22;12308;50.948;4.706;2023-03-12T03:03:48;6.30;99.90
24146;DHT22;12308;50.948;4.706;2023-03-12T03:06:14;6.30;99.90
24146;DHT22;12308;50.948;4.706;2023-03-12T03:08:40;6.10;99.90
24146;DHT22;12308;50.948;4.706;2023-03-12T03:11:06;6.10;99.90
24146;DHT22;12308;50.948;4.706;2023-03-12T03:13:32;6.10;99.90
24146;DHT22;12308;50.948;4.706;2023-03-12T03:15:59;6.20;99.90
24146;DHT22;12308;50.948;4.706;2023-03-12T03:18:27;6.10;99.90
24146;DHT22;12308;50.948;4.706;2023-03-12T03:20:56;6.20;99.90
24146;DHT22;12308;50.948;4.706;2023-03-12T03:23:23;6.20;99.90
24146;DHT22;12308;50.948;4.706;2023-03-12T03:25:49;6.20;99.90
24146;DHT22;12308;50.948;4.706;2023-03-12T03:28:14;6.20;99.90
24146;DHT22;12308;50.948;4.706;2023-03-12T03:30:40;6.20;99.90
24146;DHT22;12308;50.948;4.706;2023-03-12T03:33:05;6.20;99.90
24146;DHT22;12308;50.948;4.706;2023-03-12T03:35:33;6.20;99.90
24146;DHT22;12308;50.948;4.706;2023-03-12T03:37:58;6.20;99.90
24146;DHT22;12308;50.948;4.706;2023-03-12T03:40:24;6.30;99.90
24146;DHT22;12308;50.948;4.706;2023-03-12T03:42:50;6.10;99.90
24146;DHT22;12308;50.948;4.706;2023-03-12T03:45:15;6.20;99.90
24146;DHT22;12308;50.948;4.706;2023-03-12T03:47:42;6.20;99.90
24146;DHT22;12308;50.948;4.706;2023-03-12T03:50:08;6.20;99.90
24146;DHT22;12308;50.948;4.706;2023-03-12T03:52:34;6.20;99.90
24146;DHT22;12308;50.948;4.706;2023-03-12T03:54:59;6.10;99.90
24146;DHT22;12308;50.948;4.706;2023-03-12T03:57:26;6.10;99.90
24146;DHT22;12308;50.948;4.706;2023-03-12T03:59:52;6.10;99.90
24146;DHT22;12308;50.948;4.706;2023-03-12T04:02:17;6.20;99.90
24146;DHT22;12308;50.948;4.706;2023-03-12T04:04:43;6.20;99.90
24146;DHT22;12308;50.948;4.706;2023-03-12T04:07:09;6.10;99.90
24146;DHT22;12308;50.948;4.706;2023-03-12T04:09:35;6.10;99.90
24146;DHT22;12308;50.948;4.706;2023-03-12T04:12:01;6.10;99.90
24146;DHT22;12308;50.948;4.706;2023-03-12T04:14:27;6.20;99.90
24146;DHT22;12308;50.948;4.706;2023-03-12T04:16:53;6.10;99.90
24146;DHT22;12308;50.948;4.706;2023-03-12T04:19:18;6.20;99.90
24146;DHT22;12308;50.948;4.706;2023-03-12T04:21:44;6.20;99.90
24146;DHT22;12308;50.948;4.706;2023-03-12T04:24:14;6.30;99.90
24146;DHT22;12308;50.948;4.706;2023-03-12T04:26:40;6.30;99.90
24146;DHT22;12308;50.948;4.706;2023-03-12T04:29:06;6.40;99.90
24146;DHT22;12308;50.948;4.706;2023-03-12T04:31:32;6.40;99.90
24146;DHT22;12308;50.948;4.706;2023-03-12T04:33:57;6.40;99.90
24146;DHT22;12308;50.948;4.706;2023-03-12T04:36:24;6.30;99.90
24146;DHT22;12308;50.948;4.706;2023-03-12T04:38:49;6.40;99.90
24146;DHT22;12308;50.948;4.706;2023-03-12T04:41:16;6.40;99.90
24146;DHT22;12308;50.948;4.706;2023-03-12T04:43:41;6.50;99.90
24146;DHT22;12308;50.948;4.706;2023-03-12T04:46:07;6.60;99.90
24146;DHT22;12308;50.948;4.706;2023-03-12T04:48:34;6.70;99.90
24146;DHT22;12308;50.948;4.706;2023-03-12T04:51:01;6.60;99.90
24146;DHT22;12308;50.948;4.706;2023-03-12T04:53:27;6.70;99.90
24146;DHT22;12308;50.948;4.706;2023-03-12T04:55:53;6.60;99.90
24146;DHT22;12308;50.948;4.706;2023-03-12T04:58:19;6.50;99.90
24146;DHT22;12308;50.948;4.706;2023-03-12T05:00:46;6.60;99.90
24146;DHT22;12308;50.948;4.706;2023-03-12T05:03:12;6.60;99.90
24146;DHT22;12308;50.948;4.706;2023-03-12T05:05:38;6.60;99.90
24146;DHT22;12308;50.948;4.706;2023-03-12T05:08:04;6.60;99.90
24146;DHT22;12308;50.948;4.706;2023-03-12T05:10:30;6.60;99.90
24146;DHT22;12308;50.948;4.706;2023-03-12T05:12:56;6.70;99.90
24146;DHT22;12308;50.948;4.706;2023-03-12T05:15:22;6.70;99.90
24146;DHT22;12308;50.948;4.706;2023-03-12T05:17:48;6.60;99.90
24146;DHT22;12308;50.948;4.706;2023-03-12T05:20:14;6.60;99.90
24146;DHT22;12308;50.948;4.706;2023-03-12T05:22:39;6.60;99.90
24146;DHT22;12308;50.948;4.706;2023-03-12T05:25:05;6.70;99.90
24146;DHT22;12308;50.948;4.706;2023-03-12T05:27:31;6.80;99.90
24146;DHT22;12308;50.948;4.706;2023-03-12T05:29:57;6.80;99.90
24146;DHT22;12308;50.948;4.706;2023-03-12T05:32:23;6.70;99.90
24146;DHT22;12308;50.948;4.706;2023-03-12T05:34:48;6.80;99.90
24146;DHT22;12308;50.948;4.706;2023-03-12T05:37:14;6.80;99.90
24146;DHT22;12308;50.948;4.706;2023-03-12T05:39:40;6.80;99.90
24146;DHT22;12308;50.948;4.706;2023-03-12T05:42:12;6.90;99.90
24146;DHT22;12308;50.948;4.706;2023-03-12T05:44:38;7.00;99.90
24146;DHT22;12308;50.948;4.706;2023-03-12T05:47:04;6.90;99.90
24146;DHT22;12308;50.948;4.706;2023-03-12T05:49:30;7.00;99.90
24146;DHT22;12308;50.948;4.706;2023-03-12T05:51:56;6.90;99.90
24146;DHT22;12308;50.948;4.706;2023-03-12T05:54:22;6.70;99.90
24146;DHT22;12308;50.948;4.706;2023-03-12T05:56:47;6.80;99.90
24146;DHT22;12308;50.948;4.706;2023-03-12T05:59:13;6.80;99.90
24146;DHT22;12308;50.948;4.706;2023-03-12T06:01:39;6.80;99.90
24146;DHT22;12308;50.948;4.706;2023-03-12T06:04:05;7.00;99.90
24146;DHT22;12308;50.948;4.706;2023-03-12T06:06:33;6.90;99.90
24146;DHT22;12308;50.948;4.706;2023-03-12T06:08:59;6.70;99.90
24146;DHT22;12308;50.948;4.706;2023-03-12T06:11:24;6.80;99.90
24146;DHT22;12308;50.948;4.706;2023-03-12T06:13:50;6.70;99.90
24146;DHT22;12308;50.948;4.706;2023-03-12T06:16:19;6.70;99.90
24146;DHT22;12308;50.948;4.706;2023-03-12T06:18:44;6.70;99.90
24146;DHT22;12308;50.948;4.706;2023-03-12T06:21:14;6.80;99.90
24146;DHT22;12308;50.948;4.706;2023-03-12T06:23:40;6.90;99.90
24146;DHT22;12308;50.948;4.706;2023-03-12T06:26:06;7.00;99.90
24146;DHT22;12308;50.948;4.706;2023-03-12T06:28:33;7.00;99.90
24146;DHT22;12308;50.948;4.706;2023-03-12T06:30:59;7.00;99.90
24146;DHT22;12308;50.948;4.706;2023-03-12T06:33:25;7.10;99.90
24146;DHT22;12308;50.948;4.706;2023-03-12T06:35:55;7.20;99.90
24146;DHT22;12308;50.948;4.706;2023-03-12T06:38:21;7.20;99.90
24146;DHT22;12308;50.948;4.706;2023-03-12T06:43:23;7.40;99.90
24146;DHT22;12308;50.948;4.706;2023-03-12T06:45:49;7.30;99.90
24146;DHT22;12308;50.948;4.706;2023-03-12T06:48:15;7.30;99.90
24146;DHT22;12308;50.948;4.706;2023-03-12T06:50:41;7.50;99.90
24146;DHT22;12308;50.948;4.706;2023-03-12T06:53:07;7.50;99.90
24146;DHT22;12308;50.948;4.706;2023-03-12T06:55:33;7.50;99.90
24146;DHT22;12308;50.948;4.706;2023-03-12T06:57:59;7.50;99.90
24146;DHT22;12308;50.948;4.706;2023-03-12T07:00:24;7.60;99.90
24146;DHT22;12308;50.948;4.706;2023-03-12T07:02:50;7.60;99.90
24146;DHT22;12308;50.948;4.706;2023-03-12T07:05:16;7.60;99.90
24146;DHT22;12308;50.948;4.706;2023-03-12T07:07:41;7.60;99.90
24146;DHT22;12308;50.948;4.706;2023-03-12T07:10:10;7.70;99.90
24146;DHT22;12308;50.948;4.706;2023-03-12T07:12:36;7.90;99.90
24146;DHT22;12308;50.948;4.706;2023-03-12T07:15:02;7.80;99.90
24146;DHT22;12308;50.948;4.706;2023-03-12T07:17:27;7.80;99.90
24146;DHT22;12308;50.948;4.706;2023-03-12T07:19:53;7.50;99.90
24146;DHT22;12308;50.948;4.706;2023-03-12T07:22:19;7.60;99.90
24146;DHT22;12308;50.948;4.706;2023-03-12T07:24:44;7.90;99.90
24146;DHT22;12308;50.948;4.706;2023-03-12T07:27:10;8.10;99.90
24146;DHT22;12308;50.948;4.706;2023-03-12T07:29:36;8.10;99.90
24146;DHT22;12308;50.948;4.706;2023-03-12T07:32:01;8.10;99.90
24146;DHT22;12308;50.948;4.706;2023-03-12T07:34:27;8.10;99.90
24146;DHT22;12308;50.948;4.706;2023-03-12T07:36:53;8.30;99.90
24146;DHT22;12308;50.948;4.706;2023-03-12T07:39:19;8.40;99.90
24146;DHT22;12308;50.948;4.706;2023-03-12T07:41:45;8.50;99.90
24146;DHT22;12308;50.948;4.706;2023-03-12T07:44:10;8.60;99.90
24146;DHT22;12308;50.948;4.706;2023-03-12T07:46:36;8.60;99.90
24146;DHT22;12308;50.948;4.706;2023-03-12T07:49:02;8.60;99.90
24146;DHT22;12308;50.948;4.706;2023-03-12T07:51:29;8.60;99.90
24146;DHT22;12308;50.948;4.706;2023-03-12T07:53:55;8.70;99.90
24146;DHT22;12308;50.948;4.706;2023-03-12T07:56:21;8.80;99.90
24146;DHT22;12308;50.948;4.706;2023-03-12T07:58:47;8.80;99.90
24146;DHT22;12308;50.948;4.706;2023-03-12T08:01:13;8.90;99.90
24146;DHT22;12308;50.948;4.706;2023-03-12T08:03:39;8.90;99.90
24146;DHT22;12308;50.948;4.706;2023-03-12T08:06:05;8.90;99.90
24146;DHT22;12308;50.948;4.706;2023-03-12T08:08:31;9.00;99.90
24146;DHT22;12308;50.948;4.706;2023-03-12T08:10:58;9.20;99.90
24146;DHT22;12308;50.948;4.706;2023-03-12T08:13:24;9.20;99.90
24146;DHT22;12308;50.948;4.706;2023-03-12T08:15:51;9.10;99.90
24146;DHT22;12308;50.948;4.706;2023-03-12T08:18:17;9.10;99.90
24146;DHT22;12308;50.948;4.706;2023-03-12T08:20:43;9.10;99.90
24146;DHT22;12308;50.948;4.706;2023-03-12T08:23:10;9.10;99.90
24146;DHT22;12308;50.948;4.706;2023-03-12T08:25:35;9.10;99.90
24146;DHT22;12308;50.948;4.706;2023-03-12T08:28:03;9.10;99.90
24146;DHT22;12308;50.948;4.706;2023-03-12T08:30:29;9.20;99.90
24146;DHT22;12308;50.948;4.706;2023-03-12T08:32:56;9.30;99.90
24146;DHT22;12308;50.948;4.706;2023-03-12T08:35:22;9.40;99.90
24146;DHT22;12308;50.948;4.706;2023-03-12T08:37:47;9.40;99.90
24146;DHT22;12308;50.948;4.706;2023-03-12T08:40:13;9.50;99.90
24146;DHT22;12308;50.948;4.706;2023-03-12T08:42:40;9.40;99.90
24146;DHT22;12308;50.948;4.706;2023-03-12T08:45:07;9.40;99.90
24146;DHT22;12308;50.948;4.706;2023-03-12T08:47:33;9.40;99.90
24146;DHT22;12308;50.948;4.706;2023-03-12T08:49:59;9.50;99.90
24146;DHT22;12308;50.948;4.706;2023-03-12T08:52:25;9.60;99.90
24146;DHT22;12308;50.948;4.706;2023-03-12T08:54:50;9.60;99.90
24146;DHT22;12308;50.948;4.706;2023-03-12T08:57:16;9.70;99.90
24146;DHT22;12308;50.948;4.706;2023-03-12T08:59:42;9.90;99.90
24146;DHT22;12308;50.948;4.706;2023-03-12T09:02:10;10.10;99.90
24146;DHT22;12308;50.948;4.706;2023-03-12T09:04:36;10.20;99.90
24146;DHT22;12308;50.948;4.706;2023-03-12T09:07:02;10.30;99.90
24146;DHT22;12308;50.948;4.706;2023-03-12T09:09:28;10.50;99.90
24146;DHT22;12308;50.948;4.706;2023-03-12T09:11:54;10.80;99.90
24146;DHT22;12308;50.948;4.706;2023-03-12T09:14:21;10.90;99.90
24146;DHT22;12308;50.948;4.706;2023-03-12T09:16:47;11.00;99.90
24146;DHT22;12308;50.948;4.706;2023-03-12T09:19:12;11.00;99.90
24146;DHT22;12308;50.948;4.706;2023-03-12T09:21:38;11.10;99.90
24146;DHT22;12308;50.948;4.706;2023-03-12T09:24:05;11.10;99.90
24146;DHT22;12308;50.948;4.706;2023-03-12T09:26:31;11.10;99.90
24146;DHT22;12308;50.948;4.706;2023-03-12T09:28:57;11.10;99.90
24146;DHT22;12308;50.948;4.706;2023-03-12T09:31:24;11.20;99.90
24146;DHT22;12308;50.948;4.706;2023-03-12T09:33:50;11.20;99.90
24146;DHT22;12308;50.948;4.706;2023-03-12T09:36:16;11.30;99.90
24146;DHT22;12308;50.948;4.706;2023-03-12T09:38:42;11.30;99.90
24146;DHT22;12308;50.948;4.706;2023-03-12T09:41:26;11.50;99.90
24146;DHT22;12308;50.948;4.706;2023-03-12T09:44:24;11.60;99.90
24146;DHT22;12308;50.948;4.706;2023-03-12T09:46:56;11.70;99.90
24146;DHT22;12308;50.948;4.706;2023-03-12T09:49:45;11.70;99.90
24146;DHT22;12308;50.948;4.706;2023-03-12T09:52:30;11.80;99.90
24146;DHT22;12308;50.948;4.706;2023-03-12T09:55:07;11.80;99.90
24146;DHT22;12308;50.948;4.706;2023-03-12T09:57:36;12.00;99.90
24146;DHT22;12308;50.948;4.706;2023-03-12T10:00:04;12.10;99.90
24146;DHT22;12308;50.948;4.706;2023-03-12T10:07:47;12.30;99.90
24146;DHT22;12308;50.948;4.706;2023-03-12T10:10:20;12.30;99.90
24146;DHT22;12308;50.948;4.706;2023-03-12T10:20:52;12.50;99.90
24146;DHT22;12308;50.948;4.706;2023-03-12T10:23:28;12.50;99.90
24146;DHT22;12308;50.948;4.706;2023-03-12T10:26:09;12.50;99.90
24146;DHT22;12308;50.948;4.706;2023-03-12T10:28:50;12.50;99.90
24146;DHT22;12308;50.948;4.706;2023-03-12T10:31:35;12.70;99.90
24146;DHT22;12308;50.948;4.706;2023-03-12T10:34:13;12.90;99.90
24146;DHT22;12308;50.948;4.706;2023-03-12T10:36:40;13.00;99.90
24146;DHT22;12308;50.948;4.706;2023-03-12T10:39:15;12.90;99.90
24146;DHT22;12308;50.948;4.706;2023-03-12T10:41:43;12.70;99.90
24146;DHT22;12308;50.948;4.706;2023-03-12T10:44:16;12.60;99.90
24146;DHT22;12308;50.948;4.706;2023-03-12T10:46:59;12.40;99.90
24146;DHT22;12308;50.948;4.706;2023-03-12T10:49:34;12.40;99.90
24146;DHT22;12308;50.948;4.706;2023-03-12T10:52:17;12.50;99.90
24146;DHT22;12308;50.948;4.706;2023-03-12T10:54:45;12.50;99.90
24146;DHT22;12308;50.948;4.706;2023-03-12T10:57:12;12.70;99.90
24146;DHT22;12308;50.948;4.706;2023-03-12T10:59:41;12.80;99.90
24146;DHT22;12308;50.948;4.706;2023-03-12T11:04:55;13.00;99.90
24146;DHT22;12308;50.948;4.706;2023-03-12T11:07:31;13.40;99.90
24146;DHT22;12308;50.948;4.706;2023-03-12T11:12:36;13.10;99.90
24146;DHT22;12308;50.948;4.706;2023-03-12T11:15:22;13.10;99.90
24146;DHT22;12308;50.948;4.706;2023-03-12T11:17:48;13.10;99.90
24146;DHT22;12308;50.948;4.706;2023-03-12T11:22:47;13.00;99.90
24146;DHT22;12308;50.948;4.706;2023-03-12T11:25:27;13.30;99.90
24146;DHT22;12308;50.948;4.706;2023-03-12T11:27:55;13.30;99.90
24146;DHT22;12308;50.948;4.706;2023-03-12T11:30:31;13.50;99.90
24146;DHT22;12308;50.948;4.706;2023-03-12T11:32:58;13.50;99.90
24146;DHT22;12308;50.948;4.706;2023-03-12T11:38:38;13.60;99.90
24146;DHT22;12308;50.948;4.706;2023-03-12T11:55:44;13.60;99.90
24146;DHT22;12308;50.948;4.706;2023-03-12T12:00:20;13.70;99.90
24146;DHT22;12308;50.948;4.706;2023-03-12T12:03:17;13.70;99.90
24146;DHT22;12308;50.948;4.706;2023-03-12T12:06:08;13.70;99.90
24146;DHT22;12308;50.948;4.706;2023-03-12T12:15:09;13.60;99.90
24146;DHT22;12308;50.948;4.706;2023-03-12T12:23:03;13.20;99.90
24146;DHT22;12308;50.948;4.706;2023-03-12T12:34:35;13.40;99.90
24146;DHT22;12308;50.948;4.706;2023-03-12T12:37:21;13.70;99.90
24146;DHT22;12308;50.948;4.706;2023-03-12T12:45:22;13.40;99.90
24146;DHT22;12308;50.948;4.706;2023-03-12T12:47:54;13.30;99.90
24146;DHT22;12308;50.948;4.706;2023-03-12T12:50:23;13.40;99.90
24146;DHT22;12308;50.948;4.706;2023-03-12T12:53:02;13.50;99.90
24146;DHT22;12308;50.948;4.706;2023-03-12T12:55:36;13.70;99.90
24146;DHT22;12308;50.948;4.706;2023-03-12T12:58:21;13.70;99.90
24146;DHT22;12308;50.948;4.706;2023-03-12T13:00:59;13.70;99.90
24146;DHT22;12308;50.948;4.706;2023-03-12T13:03:26;13.70;99.90
24146;DHT22;12308;50.948;4.706;2023-03-12T13:05:59;13.60;99.90
24146;DHT22;12308;50.948;4.706;2023-03-12T13:13:37;14.30;99.90
24146;DHT22;12308;50.948;4.706;2023-03-12T13:21:39;14.30;99.90
24146;DHT22;12308;50.948;4.706;2023-03-12T13:31:54;14.10;99.90
24146;DHT22;12308;50.948;4.706;2023-03-12T13:36:49;13.80;99.90
24146;DHT22;12308;50.948;4.706;2023-03-12T13:49:43;13.60;99.90
24146;DHT22;12308;50.948;4.706;2023-03-12T13:57:40;13.30;99.90
24146;DHT22;12308;50.948;4.706;2023-03-12T14:02:51;13.20;99.90
24146;DHT22;12308;50.948;4.706;2023-03-12T14:05:18;13.20;99.90
24146;DHT22;12308;50.948;4.706;2023-03-12T14:16:53;13.50;99.90
24146;DHT22;12308;50.948;4.706;2023-03-12T14:19:23;13.40;99.90
24146;DHT22;12308;50.948;4.706;2023-03-12T14:21:50;13.50;99.90
24146;DHT22;12308;50.948;4.706;2023-03-12T14:26:45;13.30;99.90
24146;DHT22;12308;50.948;4.706;2023-03-12T14:29:27;13.20;99.90
24146;DHT22;12308;50.948;4.706;2023-03-12T14:31:56;13.30;99.90
24146;DHT22;12308;50.948;4.706;2023-03-12T14:34:26;13.40;99.90
24146;DHT22;12308;50.948;4.706;2023-03-12T14:37:03;13.40;99.90
24146;DHT22;12308;50.948;4.706;2023-03-12T14:39:49;13.30;99.90
24146;DHT22;12308;50.948;4.706;2023-03-12T14:42:32;13.40;99.90
24146;DHT22;12308;50.948;4.706;2023-03-12T14:45:19;13.40;99.90
24146;DHT22;12308;50.948;4.706;2023-03-12T14:47:55;13.40;99.90
24146;DHT22;12308;50.948;4.706;2023-03-12T14:50:26;13.30;99.90
24146;DHT22;12308;50.948;4.706;2023-03-12T14:52:53;13.30;99.90
24146;DHT22;12308;50.948;4.706;2023-03-12T14:55:21;13.40;99.90
24146;DHT22;12308;50.948;4.706;2023-03-12T14:57:48;13.50;99.90
24146;DHT22;12308;50.948;4.706;2023-03-12T15:00:26;13.70;99.90
24146;DHT22;12308;50.948;4.706;2023-03-12T15:02:54;13.70;99.90
24146;DHT22;12308;50.948;4.706;2023-03-12T15:05:21;13.70;99.90
24146;DHT22;12308;50.948;4.706;2023-03-12T15:07:49;13.60;99.90
24146;DHT22;12308;50.948;4.706;2023-03-12T15:10:26;13.60;99.90
24146;DHT22;12308;50.948;4.706;2023-03-12T15:12:55;13.60;99.90
24146;DHT22;12308;50.948;4.706;2023-03-12T15:17:56;13.60;99.90
24146;DHT22;12308;50.948;4.706;2023-03-12T15:20:24;13.60;99.90
24146;DHT22;12308;50.948;4.706;2023-03-12T15:22:51;13.60;99.90
24146;DHT22;12308;50.948;4.706;2023-03-12T15:25:26;13.50;99.90
24146;DHT22;12308;50.948;4.706;2023-03-12T15:28:25;13.40;99.90
24146;DHT22;12308;50.948;4.706;2023-03-12T15:31:06;13.40;99.90
24146;DHT22;12308;50.948;4.706;2023-03-12T15:33:32;13.40;99.90
24146;DHT22;12308;50.948;4.706;2023-03-12T15:38:51;13.40;99.90
24146;DHT22;12308;50.948;4.706;2023-03-12T15:41:42;13.40;99.90
24146;DHT22;12308;50.948;4.706;2023-03-12T15:44:21;13.30;99.90
24146;DHT22;12308;50.948;4.706;2023-03-12T15:46:49;13.30;99.90
24146;DHT22;12308;50.948;4.706;2023-03-12T15:49:26;13.60;99.90
24146;DHT22;12308;50.948;4.706;2023-03-12T15:57:55;13.20;99.90
24146;DHT22;12308;50.948;4.706;2023-03-12T16:00:42;13.30;99.90
24146;DHT22;12308;50.948;4.706;2023-03-12T16:03:19;13.50;99.90
24146;DHT22;12308;50.948;4.706;2023-03-12T16:05:45;13.50;99.90
24146;DHT22;12308;50.948;4.706;2023-03-12T16:08:18;13.60;99.90
24146;DHT22;12308;50.948;4.706;2023-03-12T16:10:46;13.50;99.90
24146;DHT22;12308;50.948;4.706;2023-03-12T16:13:15;13.60;99.90
24146;DHT22;12308;50.948;4.706;2023-03-12T16:15:41;13.50;99.90
24146;DHT22;12308;50.948;4.706;2023-03-12T16:18:25;13.50;99.90
24146;DHT22;12308;50.948;4.706;2023-03-12T16:20:51;13.50;99.90
24146;DHT22;12308;50.948;4.706;2023-03-12T16:23:17;13.50;99.90
24146;DHT22;12308;50.948;4.706;2023-03-12T16:25:46;13.30;99.90
24146;DHT22;12308;50.948;4.706;2023-03-12T16:28:14;13.30;99.90
24146;DHT22;12308;50.948;4.706;2023-03-12T16:30:41;13.40;99.90
24146;DHT22;12308;50.948;4.706;2023-03-12T16:33:07;13.40;99.90
24146;DHT22;12308;50.948;4.706;2023-03-12T16:35:36;13.30;99.90
24146;DHT22;12308;50.948;4.706;2023-03-12T16:38:02;13.20;99.90
24146;DHT22;12308;50.948;4.706;2023-03-12T16:40:34;13.10;99.90
24146;DHT22;12308;50.948;4.706;2023-03-12T16:43:02;13.00;99.90
24146;DHT22;12308;50.948;4.706;2023-03-12T16:45:30;13.10;99.90
24146;DHT22;12308;50.948;4.706;2023-03-12T16:47:59;13.20;99.90
24146;DHT22;12308;50.948;4.706;2023-03-12T16:50:26;13.20;99.90
24146;DHT22;12308;50.948;4.706;2023-03-12T16:52:52;13.30;99.90
24146;DHT22;12308;50.948;4.706;2023-03-12T16:55:19;13.10;99.90
24146;DHT22;12308;50.948;4.706;2023-03-12T16:57:50;13.20;99.90
24146;DHT22;12308;50.948;4.706;2023-03-12T17:00:22;13.10;99.90
24146;DHT22;12308;50.948;4.706;2023-03-12T17:02:48;13.00;99.90
24146;DHT22;12308;50.948;4.706;2023-03-12T17:05:15;13.00;99.90
24146;DHT22;12308;50.948;4.706;2023-03-12T17:07:40;13.10;99.90
24146;DHT22;12308;50.948;4.706;2023-03-12T17:10:07;13.00;99.90
24146;DHT22;12308;50.948;4.706;2023-03-12T17:12:37;13.00;99.90
24146;DHT22;12308;50.948;4.706;2023-03-12T17:15:06;13.00;99.90
24146;DHT22;12308;50.948;4.706;2023-03-12T17:17:32;13.00;99.90
24146;DHT22;12308;50.948;4.706;2023-03-12T17:19:58;12.90;99.90
24146;DHT22;12308;50.948;4.706;2023-03-12T17:22:25;12.80;99.90
24146;DHT22;12308;50.948;4.706;2023-03-12T17:24:52;12.80;99.90
24146;DHT22;12308;50.948;4.706;2023-03-12T17:27:18;12.70;99.90
24146;DHT22;12308;50.948;4.706;2023-03-12T17:29:44;12.60;99.90
24146;DHT22;12308;50.948;4.706;2023-03-12T17:32:09;12.50;99.90
24146;DHT22;12308;50.948;4.706;2023-03-12T17:34:35;12.60;99.90
24146;DHT22;12308;50.948;4.706;2023-03-12T17:37:01;12.70;99.90
24146;DHT22;12308;50.948;4.706;2023-03-12T17:39:27;12.80;99.90
24146;DHT22;12308;50.948;4.706;2023-03-12T17:41:53;12.70;99.90
24146;DHT22;12308;50.948;4.706;2023-03-12T17:44:18;12.70;99.90
24146;DHT22;12308;50.948;4.706;2023-03-12T17:46:44;12.70;99.90
24146;DHT22;12308;50.948;4.706;2023-03-12T17:49:10;12.50;99.90
24146;DHT22;12308;50.948;4.706;2023-03-12T17:51:35;12.60;99.90
24146;DHT22;12308;50.948;4.706;2023-03-12T17:54:03;12.70;99.90
24146;DHT22;12308;50.948;4.706;2023-03-12T17:56:29;12.70;99.90
24146;DHT22;12308;50.948;4.706;2023-03-12T17:58:54;12.80;99.90
24146;DHT22;12308;50.948;4.706;2023-03-12T18:01:20;12.70;99.90
24146;DHT22;12308;50.948;4.706;2023-03-12T18:03:46;12.60;99.90